VYA605 SBFZ-SBCY
Flight info
| Callsign | VYA605 |
|---|---|
| Flight time | N/A |
| Altitude | 38000 |
| Route | DALVO UZ18 IRUMA UZ84 SOTVA UZ76 MUBUT |
| Aircraft | CL60/M-SADE3FGHIJ3J4J7P2RWXY/HB1D1 |
Departure
| Time | N/A |
|---|---|
| Airport | Pinto Martins International Airport (SBFZ) |
Arrival
| Time | 2026-04-30 19:35 |
|---|---|
| Airport | Várzea Grande–Marechal Rondon International Airport (SBCY) |
| Time | Latitude | Longitude | Altitude | Speed | Heading |
|---|---|---|---|---|---|
| 2026-04-30 17:39 | -9.08714 | -43.05707 | 39995 ft | 478 kts | 217° |
| 2026-04-30 17:42 | -9.35511 | -43.26016 | 39989 ft | 480 kts | 217° |
| 2026-04-30 17:43 | -9.48871 | -43.36157 | 39988 ft | 477 kts | 216° |
| 2026-04-30 17:44 | -9.64997 | -43.48410 | 39957 ft | 482 kts | 216° |
| 2026-04-30 17:47 | -9.89537 | -43.67086 | 39969 ft | 488 kts | 216° |
| 2026-04-30 17:48 | -10.08679 | -43.81681 | 39960 ft | 488 kts | 216° |
| 2026-04-30 17:50 | -10.30520 | -43.98369 | 39950 ft | 488 kts | 215° |
| 2026-04-30 17:52 | -10.46965 | -44.10954 | 39970 ft | 487 kts | 215° |
| 2026-04-30 17:54 | -10.71542 | -44.29758 | 39961 ft | 489 kts | 215° |
| 2026-04-30 17:56 | -10.93434 | -44.46531 | 39950 ft | 490 kts | 215° |
| 2026-04-30 17:57 | -11.00663 | -44.54019 | 39942 ft | 495 kts | 234° |
| 2026-04-30 17:58 | -11.05241 | -44.63498 | 39958 ft | 498 kts | 247° |
| 2026-04-30 18:00 | -11.15535 | -44.89914 | 39992 ft | 498 kts | 248° |
| 2026-04-30 18:01 | -11.21932 | -45.06369 | 40023 ft | 499 kts | 248° |
| 2026-04-30 18:02 | -11.29586 | -45.26102 | 40015 ft | 497 kts | 248° |
| 2026-04-30 18:04 | -11.37199 | -45.45775 | 40028 ft | 496 kts | 248° |
| 2026-04-30 18:06 | -11.47347 | -45.72063 | 40039 ft | 495 kts | 248° |
| 2026-04-30 18:08 | -11.56216 | -45.95069 | 40051 ft | 495 kts | 248° |
| 2026-04-30 18:10 | -11.66321 | -46.21407 | 40055 ft | 496 kts | 249° |
| 2026-04-30 18:11 | -11.75143 | -46.44487 | 40035 ft | 496 kts | 248° |
| 2026-04-30 18:13 | -11.81466 | -46.61068 | 40000 ft | 497 kts | 249° |
| 2026-04-30 18:14 | -11.87707 | -46.77467 | 39963 ft | 496 kts | 249° |
| 2026-04-30 18:15 | -11.95225 | -46.97255 | 39958 ft | 497 kts | 249° |
| 2026-04-30 18:16 | -12.00252 | -47.10499 | 39957 ft | 497 kts | 249° |
| 2026-04-30 18:17 | -12.02766 | -47.17128 | 39947 ft | 496 kts | 249° |
| 2026-04-30 18:18 | -12.06506 | -47.27002 | 39940 ft | 496 kts | 249° |
| 2026-04-30 18:18 | -12.08995 | -47.33580 | 39947 ft | 496 kts | 249° |
| 2026-04-30 18:19 | -12.11520 | -47.40259 | 39951 ft | 495 kts | 249° |
| 2026-04-30 18:19 | -12.14011 | -47.46855 | 39952 ft | 495 kts | 249° |
| 2026-04-30 18:20 | -12.16494 | -47.53433 | 39950 ft | 495 kts | 249° |
| 2026-04-30 18:20 | -12.18971 | -47.60004 | 39957 ft | 494 kts | 249° |
| 2026-04-30 18:21 | -12.21457 | -47.66604 | 39953 ft | 494 kts | 249° |
| 2026-04-30 18:21 | -12.23927 | -47.73167 | 39954 ft | 493 kts | 249° |
| 2026-04-30 18:22 | -12.26401 | -47.79748 | 39957 ft | 493 kts | 249° |
| 2026-04-30 18:22 | -12.30118 | -47.89656 | 39945 ft | 494 kts | 249° |
| 2026-04-30 18:23 | -12.32582 | -47.96228 | 39951 ft | 493 kts | 249° |
| 2026-04-30 18:23 | -12.35074 | -48.02867 | 39945 ft | 493 kts | 249° |
| 2026-04-30 18:24 | -12.38787 | -48.12769 | 39931 ft | 492 kts | 249° |
| 2026-04-30 18:25 | -12.41230 | -48.19291 | 39931 ft | 492 kts | 249° |
| 2026-04-30 18:25 | -12.44933 | -48.29189 | 39929 ft | 493 kts | 249° |
| 2026-04-30 18:26 | -12.48604 | -48.39027 | 39929 ft | 493 kts | 249° |
| 2026-04-30 18:27 | -12.52295 | -48.48933 | 39926 ft | 493 kts | 249° |
| 2026-04-30 18:28 | -12.55959 | -48.58774 | 39926 ft | 493 kts | 249° |
| 2026-04-30 18:28 | -12.59647 | -48.68696 | 39917 ft | 493 kts | 249° |
| 2026-04-30 18:29 | -12.64532 | -48.81855 | 39917 ft | 493 kts | 249° |
| 2026-04-30 18:30 | -12.69428 | -48.95040 | 39923 ft | 493 kts | 249° |
| 2026-04-30 18:31 | -12.73105 | -49.04961 | 39919 ft | 494 kts | 249° |
| 2026-04-30 18:32 | -12.76758 | -49.14842 | 39906 ft | 494 kts | 249° |
| 2026-04-30 18:33 | -12.80412 | -49.24754 | 39902 ft | 494 kts | 249° |
| 2026-04-30 18:33 | -12.84072 | -49.34695 | 39894 ft | 493 kts | 249° |
| 2026-04-30 18:34 | -12.87725 | -49.44599 | 39897 ft | 493 kts | 249° |
| 2026-04-30 18:35 | -12.90159 | -49.51202 | 39897 ft | 493 kts | 249° |
| 2026-04-30 18:35 | -12.92608 | -49.57849 | 39898 ft | 494 kts | 249° |
| 2026-04-30 18:36 | -12.96259 | -49.67778 | 39909 ft | 493 kts | 249° |
| 2026-04-30 18:37 | -12.99920 | -49.77769 | 39905 ft | 493 kts | 249° |
| 2026-04-30 18:37 | -13.02344 | -49.84392 | 39914 ft | 492 kts | 249° |
| 2026-04-30 18:38 | -13.04748 | -49.90968 | 39918 ft | 493 kts | 249° |
| 2026-04-30 18:38 | -13.07164 | -49.97580 | 39913 ft | 493 kts | 249° |
| 2026-04-30 18:39 | -13.09593 | -50.04233 | 39919 ft | 493 kts | 249° |
| 2026-04-30 18:39 | -13.11993 | -50.10816 | 39913 ft | 493 kts | 249° |
| 2026-04-30 18:40 | -13.14417 | -50.17468 | 39920 ft | 492 kts | 249° |
| 2026-04-30 18:40 | -13.16818 | -50.24063 | 39914 ft | 492 kts | 249° |
| 2026-04-30 18:41 | -13.19224 | -50.30678 | 39917 ft | 492 kts | 249° |
| 2026-04-30 18:41 | -13.21625 | -50.37289 | 39898 ft | 492 kts | 249° |
| 2026-04-30 18:42 | -13.24016 | -50.43880 | 39887 ft | 492 kts | 249° |
| 2026-04-30 18:42 | -13.27613 | -50.53805 | 39885 ft | 492 kts | 249° |
| 2026-04-30 18:45 | -13.40768 | -50.90182 | 39878 ft | 491 kts | 250° |
| 2026-04-30 18:46 | -13.43145 | -50.96773 | 39878 ft | 491 kts | 250° |
| 2026-04-30 18:46 | -13.45549 | -51.03444 | 39887 ft | 491 kts | 250° |
| 2026-04-30 18:47 | -13.47927 | -51.10050 | 39895 ft | 491 kts | 250° |
| 2026-04-30 18:47 | -13.50317 | -51.16692 | 39899 ft | 491 kts | 250° |
| 2026-04-30 18:48 | -13.52681 | -51.23272 | 39906 ft | 491 kts | 250° |
| 2026-04-30 18:48 | -13.55071 | -51.29930 | 39909 ft | 491 kts | 250° |
| 2026-04-30 18:49 | -13.57430 | -51.36508 | 39911 ft | 490 kts | 250° |
| 2026-04-30 18:49 | -13.59801 | -51.43129 | 39914 ft | 490 kts | 250° |
| 2026-04-30 18:50 | -13.62164 | -51.49731 | 39910 ft | 490 kts | 250° |
| 2026-04-30 18:50 | -13.64531 | -51.56351 | 39920 ft | 490 kts | 250° |
| 2026-04-30 18:51 | -13.66889 | -51.62953 | 39928 ft | 490 kts | 250° |
| 2026-04-30 18:51 | -13.69266 | -51.69614 | 39928 ft | 489 kts | 250° |
| 2026-04-30 18:52 | -13.71605 | -51.76176 | 39930 ft | 489 kts | 251° |
| 2026-04-30 18:52 | -13.73966 | -51.82804 | 39935 ft | 488 kts | 250° |
| 2026-04-30 18:53 | -13.76315 | -51.89407 | 39941 ft | 488 kts | 251° |
| 2026-04-30 18:53 | -13.78661 | -51.96003 | 39949 ft | 488 kts | 251° |
| 2026-04-30 18:54 | -13.80983 | -52.02544 | 39956 ft | 488 kts | 251° |
| 2026-04-30 18:54 | -13.83329 | -52.09153 | 39958 ft | 488 kts | 251° |
| 2026-04-30 18:55 | -13.85669 | -52.15756 | 39957 ft | 488 kts | 251° |
| 2026-04-30 18:55 | -13.89166 | -52.25647 | 39947 ft | 488 kts | 251° |
| 2026-04-30 18:56 | -13.92670 | -52.35582 | 39936 ft | 488 kts | 251° |
| 2026-04-30 18:57 | -13.96160 | -52.45488 | 39925 ft | 488 kts | 251° |
| 2026-04-30 18:57 | -13.98474 | -52.52067 | 39925 ft | 487 kts | 251° |
| 2026-04-30 18:58 | -14.01973 | -52.62001 | 39932 ft | 487 kts | 251° |
| 2026-04-30 18:59 | -14.05440 | -52.71855 | 39944 ft | 487 kts | 251° |
| 2026-04-30 19:00 | -14.10075 | -52.85047 | 39945 ft | 487 kts | 251° |
| 2026-04-30 19:01 | -14.14676 | -52.98169 | 39936 ft | 487 kts | 251° |
| 2026-04-30 19:02 | -14.18146 | -53.08084 | 39945 ft | 486 kts | 251° |
| 2026-04-30 19:03 | -14.22754 | -53.21269 | 39965 ft | 486 kts | 251° |
| 2026-04-30 19:04 | -14.27341 | -53.34424 | 39966 ft | 486 kts | 251° |
| 2026-04-30 19:05 | -14.31939 | -53.47693 | 39937 ft | 487 kts | 251° |
| 2026-04-30 19:06 | -14.36492 | -53.60877 | 39964 ft | 486 kts | 251° |
| 2026-04-30 19:06 | -14.41134 | -53.70176 | 39976 ft | 488 kts | 239° |
| 2026-04-30 19:07 | -14.46590 | -53.79082 | 39984 ft | 488 kts | 239° |
| 2026-04-30 19:08 | -14.53886 | -53.91007 | 39979 ft | 487 kts | 239° |
| 2026-04-30 19:09 | -14.59314 | -53.99887 | 39979 ft | 488 kts | 239° |
| 2026-04-30 19:09 | -14.62940 | -54.05826 | 39986 ft | 487 kts | 239° |
| 2026-04-30 19:10 | -14.70201 | -54.17729 | 40000 ft | 486 kts | 239° |
| 2026-04-30 19:11 | -14.74690 | -54.27103 | 40011 ft | 482 kts | 254° |
| 2026-04-30 19:12 | -14.76204 | -54.33950 | 40014 ft | 481 kts | 263° |
| 2026-04-30 19:12 | -14.77170 | -54.40802 | 40012 ft | 481 kts | 263° |
| 2026-04-30 19:13 | -14.79115 | -54.54620 | 40007 ft | 481 kts | 263° |
| 2026-04-30 19:14 | -14.80082 | -54.61520 | 39310 ft | 486 kts | 263° |
| 2026-04-30 19:14 | -14.80567 | -54.64977 | 38703 ft | 480 kts | 263° |
| 2026-04-30 19:14 | -14.81035 | -54.68324 | 38178 ft | 477 kts | 263° |
| 2026-04-30 19:14 | -14.81517 | -54.71772 | 37567 ft | 476 kts | 263° |
| 2026-04-30 19:15 | -14.81989 | -54.75151 | 36953 ft | 476 kts | 263° |
| 2026-04-30 19:15 | -14.82933 | -54.81929 | 35683 ft | 478 kts | 263° |
| 2026-04-30 19:15 | -14.83408 | -54.85339 | 35042 ft | 479 kts | 263° |
| 2026-04-30 19:16 | -14.83881 | -54.88744 | 34402 ft | 480 kts | 263° |
| 2026-04-30 19:16 | -14.84355 | -54.92159 | 33765 ft | 482 kts | 263° |
| 2026-04-30 19:16 | -14.85313 | -54.99077 | 32491 ft | 483 kts | 263° |
| 2026-04-30 19:17 | -14.85782 | -55.02461 | 31834 ft | 480 kts | 263° |
| 2026-04-30 19:17 | -14.86721 | -55.09254 | 30565 ft | 470 kts | 263° |
| 2026-04-30 19:17 | -14.87177 | -55.12557 | 29949 ft | 465 kts | 263° |
| 2026-04-30 19:18 | -14.87936 | -55.18063 | 28922 ft | 457 kts | 263° |
| 2026-04-30 19:18 | -14.88524 | -55.22337 | 28127 ft | 451 kts | 263° |
| 2026-04-30 19:18 | -14.88967 | -55.25563 | 27523 ft | 448 kts | 263° |
| 2026-04-30 19:19 | -14.89405 | -55.28753 | 26925 ft | 444 kts | 263° |
| 2026-04-30 19:19 | -14.89838 | -55.31913 | 26333 ft | 441 kts | 263° |
| 2026-04-30 19:19 | -14.90692 | -55.38160 | 25160 ft | 436 kts | 263° |
| 2026-04-30 19:20 | -14.91112 | -55.41232 | 24585 ft | 433 kts | 263° |
| 2026-04-30 19:20 | -14.91533 | -55.44315 | 24007 ft | 430 kts | 263° |
| 2026-04-30 19:20 | -14.92365 | -55.50418 | 22860 ft | 425 kts | 263° |
| 2026-04-30 19:21 | -14.92774 | -55.53428 | 22300 ft | 422 kts | 263° |
| 2026-04-30 19:21 | -14.93592 | -55.59448 | 21180 ft | 417 kts | 263° |
| 2026-04-30 19:22 | -14.94394 | -55.65363 | 20074 ft | 411 kts | 264° |
| 2026-04-30 19:22 | -14.95565 | -55.74019 | 18438 ft | 402 kts | 264° |
| 2026-04-30 19:23 | -14.96712 | -55.82520 | 16858 ft | 393 kts | 264° |
| 2026-04-30 19:24 | -14.97462 | -55.88086 | 15966 ft | 388 kts | 264° |
| 2026-04-30 19:24 | -14.97834 | -55.90861 | 15395 ft | 387 kts | 264° |
| 2026-04-30 19:24 | -14.98565 | -55.96307 | 14391 ft | 378 kts | 263° |
| 2026-04-30 19:25 | -15.01699 | -56.03465 | 12845 ft | 364 kts | 221° |
| 2026-04-30 19:26 | -15.05997 | -56.06047 | 11816 ft | 351 kts | 204° |
| 2026-04-30 19:26 | -15.10365 | -56.08218 | 10900 ft | 341 kts | 204° |
| 2026-04-30 19:26 | -15.12528 | -56.09294 | 10434 ft | 336 kts | 204° |
| 2026-04-30 19:27 | -15.16708 | -56.11374 | 9547 ft | 327 kts | 204° |
| 2026-04-30 19:27 | -15.20766 | -56.13394 | 8679 ft | 320 kts | 204° |
| 2026-04-30 19:28 | -15.22781 | -56.14398 | 8250 ft | 316 kts | 204° |
| 2026-04-30 19:28 | -15.26713 | -56.16356 | 7412 ft | 308 kts | 204° |
| 2026-04-30 19:29 | -15.30552 | -56.18270 | 6584 ft | 300 kts | 204° |
| 2026-04-30 19:29 | -15.32413 | -56.19198 | 6184 ft | 290 kts | 204° |
| 2026-04-30 19:30 | -15.37733 | -56.21850 | 5084 ft | 284 kts | 204° |
| 2026-04-30 19:30 | -15.41357 | -56.23370 | 4317 ft | 277 kts | 185° |
| 2026-04-30 19:31 | -15.45004 | -56.22452 | 3528 ft | 268 kts | 150° |
| 2026-04-30 19:31 | -15.46644 | -56.21569 | 3172 ft | 265 kts | 150° |
| 2026-04-30 19:31 | -15.49910 | -56.19830 | 2597 ft | 252 kts | 151° |
| 2026-04-30 19:32 | -15.51425 | -56.19029 | 2557 ft | 234 kts | 151° |
| 2026-04-30 19:32 | -15.52805 | -56.18300 | 2621 ft | 208 kts | 150° |
| 2026-04-30 19:32 | -15.54079 | -56.17623 | 2602 ft | 203 kts | 150° |
| 2026-04-30 19:32 | -15.55348 | -56.16947 | 2569 ft | 202 kts | 150° |
| 2026-04-30 19:33 | -15.56618 | -56.16272 | 2302 ft | 199 kts | 151° |
| 2026-04-30 19:33 | -15.57771 | -56.15660 | 2078 ft | 170 kts | 151° |
| 2026-04-30 19:33 | -15.58736 | -56.15149 | 1886 ft | 148 kts | 151° |
| 2026-04-30 19:33 | -15.59643 | -56.14665 | 1665 ft | 141 kts | 152° |
| 2026-04-30 19:34 | -15.60512 | -56.14206 | 1463 ft | 138 kts | 153° |
| 2026-04-30 19:34 | -15.61368 | -56.13761 | 1230 ft | 136 kts | 152° |
| 2026-04-30 19:34 | -15.63043 | -56.12871 | 919 ft | 133 kts | 153° |
| 2026-04-30 19:35 | -15.63880 | -56.12422 | 754 ft | 132 kts | 153° |
| 2026-04-30 19:35 | -15.64675 | -56.11998 | 621 ft | 119 kts | 153° |
| 2026-04-30 19:35 | -15.65319 | -56.11655 | 602 ft | 78 kts | 152° |
| 2026-04-30 19:35 | -15.65650 | -56.11482 | 598 ft | 31 kts | 153° |
| 2026-04-30 19:36 | -15.65815 | -56.11391 | 597 ft | 28 kts | 152° |
| 2026-04-30 19:36 | -15.65993 | -56.11295 | 595 ft | 29 kts | 152° |
| 2026-04-30 19:36 | -15.66240 | -56.11225 | 594 ft | 13 kts | 239° |
| 2026-04-30 19:37 | -15.66216 | -56.11310 | 596 ft | 15 kts | 329° |
| 2026-04-30 19:37 | -15.66139 | -56.11351 | 597 ft | 11 kts | 335° |
| 2026-04-30 19:37 | -15.66010 | -56.11417 | 597 ft | 24 kts | 332° |
| 2026-04-30 19:37 | -15.65868 | -56.11490 | 598 ft | 15 kts | 334° |
| 2026-04-30 19:38 | -15.65765 | -56.11548 | 599 ft | 16 kts | 332° |
| 2026-04-30 19:38 | -15.65714 | -56.11575 | 599 ft | 10 kts | 333° |
| 2026-04-30 19:38 | -15.65617 | -56.11624 | 600 ft | 17 kts | 333° |
| 2026-04-30 19:38 | -15.65503 | -56.11687 | 601 ft | 19 kts | 330° |
| 2026-04-30 19:39 | -15.65383 | -56.11750 | 603 ft | 12 kts | 334° |
| 2026-04-30 19:39 | -15.65344 | -56.11781 | 604 ft | 8 kts | 265° |
| 2026-04-30 19:39 | -15.65362 | -56.11815 | 604 ft | 0 kts | 242° |